Wetterdaten: Woche 23.11.15 - 29.11.15 (KW48)
Datum Zeit Temp. A. Feuchte A. Luftdruck Regen Wind Richtung Sonnenschein ET UV Solar Taupunkt Windchill Windben Empfang
23.11.2015 00:00 -0,1 C 88 % 1014,4 hPa 0,0 l/m 6,1 km/h (2 Bft) SW 0,00 h 0,000 mm 0,0 UV-I 0 W/m -1,9 C -0,4 C 10,2 km/h (2 Bft) 98,31 %
23.11.2015 01:00 -0,0 C 85 % 1014,7 hPa 0,0 l/m 7,0 km/h (2 Bft) SW 0,00 h 0,000 mm 0,0 UV-I 0 W/m -2,1 C -0,8 C 11,7 km/h (2 Bft) 98,35 %
23.11.2015 02:00 0,0 C 83 % 1015,2 hPa 0,0 l/m 8,5 km/h (2 Bft) S-SW 0,00 h 0,000 mm 0,0 UV-I 0 W/m -2,6 C -2,1 C 14,2 km/h (3 Bft) 98,72 %
23.11.2015 03:00 -0,0 C 83 % 1015,7 hPa 0,0 l/m 7,9 km/h (2 Bft) S 0,00 h 0,000 mm 0,0 UV-I 0 W/m -2,5 C -1,6 C 12,8 km/h (3 Bft) 98,39 %
23.11.2015 04:00 0,1 C 82 % 1016,2 hPa 0,0 l/m 8,7 km/h (2 Bft) S-SW 0,00 h 0,000 mm 0,0 UV-I 0 W/m -2,6 C -2,1 C 14,0 km/h (3 Bft) 99,19 %
23.11.2015 05:00 0,2 C 83 % 1016,9 hPa 0,0 l/m 4,7 km/h (1 Bft) S-SW 0,00 h 0,025 mm 0,0 UV-I 0 W/m -2,4 C -0,0 C 8,2 km/h (2 Bft) 97,28 %
23.11.2015 06:00 0,3 C 83 % 1017,7 hPa 0,0 l/m 5,1 km/h (1 Bft) SW 0,00 h 0,000 mm 0,0 UV-I 0 W/m -2,2 C 0,2 C 9,0 km/h (2 Bft) 99,43 %
23.11.2015 07:00 0,4 C 84 % 1018,5 hPa 0,0 l/m 7,9 km/h (2 Bft) S 0,00 h 0,000 mm 0,0 UV-I 9 W/m -2,0 C -1,0 C 13,3 km/h (3 Bft) 97,53 %
23.11.2015 08:00 0,8 C 83 % 1019,5 hPa 0,0 l/m 10,3 km/h (2 Bft) SW 0,00 h 0,026 mm 0,0 UV-I 31 W/m -1,8 C -2,8 C 18,2 km/h (3 Bft) 99,15 %
23.11.2015 09:00 0,8 C 86 % 1020,5 hPa 0,0 l/m 15,1 km/h (3 Bft) SW 0,00 h 0,025 mm 0,0 UV-I 90 W/m -1,2 C -5,9 C 25,1 km/h (4 Bft) 97,38 %
23.11.2015 10:00 1,8 C 85 % 1021,3 hPa 0,0 l/m 16,6 km/h (3 Bft) SW 0,25 h 0,051 mm 0,1 UV-I 164 W/m -0,5 C -5,7 C 27,6 km/h (4 Bft) 99,21 %
23.11.2015 11:00 2,3 C 83 % 1021,5 hPa 0,0 l/m 16,5 km/h (3 Bft) SW 0,25 h 0,076 mm 0,4 UV-I 177 W/m -0,2 C -4,9 C 27,6 km/h (4 Bft) 98,13 %
23.11.2015 12:00 2,7 C 80 % 1021,7 hPa 0,0 l/m 16,7 km/h (3 Bft) SW 0,25 h 0,076 mm 0,6 UV-I 172 W/m -0,5 C -4,6 C 28,7 km/h (4 Bft) 99,22 %
23.11.2015 13:00 3,6 C 74 % 1022,0 hPa 0,0 l/m 17,9 km/h (3 Bft) SW 0,67 h 0,077 mm 0,3 UV-I 298 W/m -0,6 C -4,0 C 30,0 km/h (5 Bft) 98,12 %
23.11.2015 14:00 2,7 C 77 % 1022,6 hPa 0,0 l/m 14,4 km/h (3 Bft) W 0,00 h 0,152 mm 0,0 UV-I 43 W/m -1,0 C -3,3 C 25,1 km/h (4 Bft) 98,36 %
23.11.2015 15:00 2,7 C 75 % 1023,2 hPa 0,0 l/m 10,9 km/h (2 Bft) W 0,00 h 0,051 mm 0,0 UV-I 37 W/m -1,3 C -1,1 C 18,8 km/h (3 Bft) 98,72 %
23.11.2015 16:00 2,3 C 76 % 1023,8 hPa 0,0 l/m 6,1 km/h (2 Bft) W 0,08 h 0,025 mm 0,0 UV-I 7 W/m -1,5 C 1,5 C 11,9 km/h (2 Bft) 98,75 %
23.11.2015 17:00 1,7 C 80 % 1024,5 hPa 0,0 l/m 3,9 km/h (1 Bft) W 0,00 h 0,026 mm 0,0 UV-I 0 W/m -1,4 C 1,7 C 7,0 km/h (2 Bft) 98,63 %
23.11.2015 18:00 1,5 C 81 % 1025,2 hPa 0,0 l/m 5,0 km/h (1 Bft) SW 0,00 h 0,000 mm 0,0 UV-I 0 W/m -1,3 C 1,5 C 8,6 km/h (2 Bft) 99,06 %
23.11.2015 19:00 1,5 C 82 % 1025,6 hPa 0,0 l/m 4,6 km/h (1 Bft) SW 0,00 h 0,000 mm 0,0 UV-I 0 W/m -1,3 C 1,5 C 7,3 km/h (2 Bft) 97,86 %
23.11.2015 20:00 1,1 C 83 % 1026,1 hPa 0,0 l/m 2,8 km/h (1 Bft) S 0,00 h 0,000 mm 0,0 UV-I 0 W/m -1,4 C 1,1 C 5,5 km/h (1 Bft) 99,21 %
23.11.2015 21:00 0,7 C 86 % 1026,4 hPa 0,0 l/m 0,4 km/h (0 Bft) N 0,00 h 0,000 mm 0,0 UV-I 0 W/m -1,3 C 0,7 C 1,5 km/h (1 Bft) 98,08 %
23.11.2015 22:00 0,2 C 89 % 1026,3 hPa 0,0 l/m 0,7 km/h (0 Bft) S-SW 0,00 h 0,000 mm 0,0 UV-I 0 W/m -1,4 C 0,2 C 1,9 km/h (1 Bft) 98,92 %
23.11.2015 23:00 -0,1 C 91 % 1026,4 hPa 0,0 l/m 0,1 km/h (0 Bft) N 0,00 h 0,000 mm 0,0 UV-I 0 W/m -1,4 C -0,1 C 0,9 km/h (0 Bft) 97,73 %
24.11.2015 00:00 -0,1 C 91 % 1026,4 hPa 0,0 l/m 1,0 km/h (0 Bft) S-SW 0,00 h 0,000 mm 0,0 UV-I 0 W/m -1,4 C -0,1 C 2,7 km/h (1 Bft) 99,18 %
24.11.2015 01:00 -0,8 C 91 % 1026,2 hPa 0,0 l/m 1,7 km/h (1 Bft) SO 0,00 h 0,000 mm 0,0 UV-I 0 W/m -2,0 C -0,8 C 3,9 km/h (1 Bft) 97,80 %
24.11.2015 02:00 -1,7 C 94 % 1026,2 hPa 0,0 l/m 0,4 km/h (0 Bft) S 0,00 h 0,000 mm 0,0 UV-I 0 W/m -2,5 C -1,7 C 2,4 km/h (1 Bft) 99,13 %
24.11.2015 03:00 -2,1 C 94 % 1025,8 hPa 0,0 l/m 0,9 km/h (0 Bft) S 0,00 h 0,000 mm 0,0 UV-I 0 W/m -2,9 C -2,1 C 2,1 km/h (1 Bft) 97,81 %
24.11.2015 04:00 -2,5 C 95 % 1025,9 hPa 0,0 l/m 0,9 km/h (0 Bft) S 0,00 h 0,000 mm 0,0 UV-I 0 W/m -3,2 C -2,5 C 2,4 km/h (1 Bft) 98,61 %
24.11.2015 05:00 -2,8 C 95 % 1026,0 hPa 0,0 l/m 1,2 km/h (1 Bft) O-NO 0,00 h 0,000 mm 0,0 UV-I 0 W/m -3,5 C -2,8 C 3,1 km/h (1 Bft) 97,87 %
24.11.2015 06:00 -3,2 C 95 % 1025,9 hPa 0,0 l/m 1,5 km/h (1 Bft) SO 0,00 h 0,000 mm 0,0 UV-I 0 W/m -3,9 C -3,2 C 2,8 km/h (1 Bft) 98,99 %
24.11.2015 07:00 -3,5 C 95 % 1026,1 hPa 0,0 l/m 0,8 km/h (0 Bft) SO 0,08 h 0,000 mm 0,0 UV-I 11 W/m -4,1 C -3,5 C 2,1 km/h (1 Bft) 97,87 %
24.11.2015 08:00 -3,0 C 95 % 1026,2 hPa 0,0 l/m 0,2 km/h (0 Bft) SO 0,58 h 0,000 mm 0,0 UV-I 91 W/m -3,6 C -3,0 C 1,1 km/h (0 Bft) 98,95 %
24.11.2015 09:00 -1,1 C 94 % 1026,1 hPa 0,0 l/m 1,5 km/h (1 Bft) O-NO 1,00 h 0,025 mm 0,4 UV-I 225 W/m -2,0 C -1,1 C 3,2 km/h (1 Bft) 98,56 %
24.11.2015 10:00 -0,0 C 90 % 1025,8 hPa 0,0 l/m 3,3 km/h (1 Bft) NO 1,00 h 0,077 mm 0,7 UV-I 310 W/m -1,5 C -0,0 C 5,5 km/h (1 Bft) 98,23 %
24.11.2015 11:00 1,2 C 83 % 1024,9 hPa 0,0 l/m 2,5 km/h (1 Bft) NO 1,00 h 0,101 mm 0,9 UV-I 353 W/m -1,4 C 1,2 C 5,5 km/h (1 Bft) 98,31 %
24.11.2015 12:00 2,1 C 79 % 1024,0 hPa 0,0 l/m 4,1 km/h (1 Bft) NO 1,00 h 0,127 mm 0,9 UV-I 352 W/m -1,3 C 2,1 C 8,0 km/h (2 Bft) 98,80 %
24.11.2015 13:00 2,7 C 74 % 1023,3 hPa 0,0 l/m 6,1 km/h (2 Bft) NO 1,00 h 0,127 mm 0,6 UV-I 300 W/m -1,6 C 2,2 C 11,1 km/h (2 Bft) 98,37 %
24.11.2015 14:00 2,8 C 69 % 1022,5 hPa 0,0 l/m 7,7 km/h (2 Bft) NO 1,00 h 0,127 mm 0,2 UV-I 190 W/m -2,3 C 1,5 C 13,8 km/h (3 Bft) 98,52 %
24.11.2015 15:00 2,3 C 73 % 1021,8 hPa 0,0 l/m 4,8 km/h (1 Bft) O-NO 0,50 h 0,076 mm 0,0 UV-I 57 W/m -2,0 C 2,2 C 7,9 km/h (2 Bft) 98,10 %
24.11.2015 16:00 0,8 C 78 % 1021,3 hPa 0,0 l/m 2,0 km/h (1 Bft) O-NO 0,08 h 0,026 mm 0,0 UV-I 8 W/m -2,6 C 0,8 C 3,5 km/h (1 Bft) 97,84 %
24.11.2015 17:00 -1,0 C 86 % 1020,8 hPa 0,0 l/m 1,6 km/h (1 Bft) O-NO 0,00 h 0,000 mm 0,0 UV-I 0 W/m -3,0 C -1,0 C 2,9 km/h (1 Bft) 98,92 %
24.11.2015 18:00 -1,5 C 88 % 1020,4 hPa 0,0 l/m 1,5 km/h (1 Bft) O 0,00 h 0,000 mm 0,0 UV-I 0 W/m -3,3 C -1,5 C 3,5 km/h (1 Bft) 99,06 %
24.11.2015 19:00 -2,2 C 89 % 1019,8 hPa 0,0 l/m 1,7 km/h (1 Bft) S 0,00 h 0,000 mm 0,0 UV-I 0 W/m -3,8 C -2,2 C 3,5 km/h (1 Bft) 97,15 %
24.11.2015 20:00 -2,6 C 91 % 1019,4 hPa 0,0 l/m 1,4 km/h (1 Bft) S 0,00 h 0,000 mm 0,0 UV-I 0 W/m -3,8 C -2,6 C 2,8 km/h (1 Bft) 99,22 %
24.11.2015 21:00 -2,5 C 92 % 1018,9 hPa 0,0 l/m 0,8 km/h (0 Bft) S 0,00 h 0,000 mm 0,0 UV-I 0 W/m -3,7 C -2,5 C 2,4 km/h (1 Bft) 97,47 %
24.11.2015 22:00 -2,9 C 91 % 1018,4 hPa 0,0 l/m 1,5 km/h (1 Bft) S 0,00 h 0,000 mm 0,0 UV-I 0 W/m -4,2 C -2,9 C 3,2 km/h (1 Bft) 98,72 %
24.11.2015 23:00 -3,6 C 92 % 1017,7 hPa 0,0 l/m 0,8 km/h (0 Bft) S 0,00 h 0,000 mm 0,0 UV-I 0 W/m -4,6 C -3,6 C 2,3 km/h (1 Bft) 97,62 %
25.11.2015 00:00 -3,9 C 93 % 1016,7 hPa 0,0 l/m 1,4 km/h (1 Bft) SO 0,00 h 0,000 mm 0,0 UV-I 0 W/m -4,9 C -3,9 C 2,9 km/h (1 Bft) 98,69 %
25.11.2015 01:00 -4,5 C 94 % 1015,7 hPa 0,0 l/m 0,8 km/h (0 Bft) SO 0,00 h 0,000 mm 0,0 UV-I 0 W/m -5,4 C -4,5 C 1,9 km/h (1 Bft) 98,21 %
25.11.2015 02:00 -4,9 C 94 % 1015,1 hPa 0,0 l/m 0,9 km/h (0 Bft) O-SO 0,00 h 0,000 mm 0,0 UV-I 0 W/m -5,7 C -4,9 C 2,4 km/h (1 Bft) 98,49 %
25.11.2015 03:00 -5,1 C 94 % 1014,1 hPa 0,0 l/m 0,5 km/h (0 Bft) W-NW 0,00 h 0,000 mm 0,0 UV-I 0 W/m -5,9 C -5,1 C 2,0 km/h (1 Bft) 98,55 %
25.11.2015 04:00 -5,0 C 94 % 1013,5 hPa 0,0 l/m 1,3 km/h (1 Bft) W-SW 0,00 h 0,000 mm 0,0 UV-I 0 W/m -5,8 C -5,0 C 2,8 km/h (1 Bft) 97,77 %
25.11.2015 05:00 -4,8 C 94 % 1013,0 hPa 0,0 l/m 2,7 km/h (1 Bft) S-SW 0,00 h 0,000 mm 0,0 UV-I 0 W/m -5,5 C -4,8 C 5,3 km/h (1 Bft) 98,85 %
25.11.2015 06:00 -3,6 C 94 % 1012,5 hPa 0,0 l/m 2,1 km/h (1 Bft) O-SO 0,00 h 0,000 mm 0,0 UV-I 0 W/m -4,5 C -3,6 C 5,0 km/h (1 Bft) 97,86 %
25.11.2015 07:00 -3,6 C 94 % 1012,2 hPa 0,0 l/m 2,2 km/h (1 Bft) N-NO 0,00 h 0,000 mm 0,0 UV-I 13 W/m -4,4 C -3,6 C 4,5 km/h (1 Bft) 98,93 %
25.11.2015 08:00 -3,2 C 94 % 1012,4 hPa 0,0 l/m 0,5 km/h (0 Bft) N 0,00 h 0,000 mm 0,0 UV-I 35 W/m -4,1 C -3,2 C 2,4 km/h (1 Bft) 97,45 %
25.11.2015 09:00 -2,7 C 93 % 1012,2 hPa 0,0 l/m 0,3 km/h (0 Bft) S-SO 0,00 h 0,000 mm 0,0 UV-I 82 W/m -3,7 C -2,7 C 1,7 km/h (1 Bft) 98,86 %
25.11.2015 10:00 -2,1 C 92 % 1011,9 hPa 0,0 l/m 0,7 km/h (0 Bft) NO 0,00 h 0,025 mm 0,3 UV-I 108 W/m -3,2 C -2,1 C 3,1 km/h (1 Bft) 97,73 %
25.11.2015 11:00 -1,3 C 90 % 1011,3 hPa 0,0 l/m 1,9 km/h (1 Bft) NO 0,00 h 0,026 mm 0,6 UV-I 143 W/m -2,8 C -1,3 C 4,1 km/h (1 Bft) 98,45 %
25.11.2015 12:00 -0,5 C 87 % 1010,6 hPa 0,0 l/m 1,9 km/h (1 Bft) NO 0,00 h 0,051 mm 0,4 UV-I 134 W/m -2,4 C -0,5 C 4,1 km/h (1 Bft) 97,71 %
25.11.2015 13:00 0,0 C 85 % 1010,0 hPa 0,0 l/m 1,5 km/h (1 Bft) NO 0,00 h 0,050 mm 0,0 UV-I 84 W/m -2,2 C 0,0 C 3,3 km/h (1 Bft) 98,65 %
25.11.2015 14:00 0,1 C 86 % 1009,5 hPa 0,0 l/m 2,1 km/h (1 Bft) NO 0,00 h 0,026 mm 0,0 UV-I 34 W/m -1,9 C 0,1 C 3,7 km/h (1 Bft) 97,60 %
25.11.2015 15:00 -0,2 C 87 % 1009,0 hPa 0,0 l/m 4,7 km/h (1 Bft) O-NO 0,00 h 0,025 mm 0,0 UV-I 18 W/m -2,0 C -0,2 C 7,5 km/h (2 Bft) 99,20 %
25.11.2015 16:00 -0,2 C 90 % 1008,8 hPa 0,0 l/m 4,2 km/h (1 Bft) NO 0,00 h 0,000 mm 0,0 UV-I 5 W/m -1,7 C -0,2 C 6,7 km/h (2 Bft) 97,60 %
25.11.2015 17:00 -0,5 C 92 % 1008,5 hPa 0,0 l/m 2,5 km/h (1 Bft) NO 0,00 h 0,000 mm 0,0 UV-I 0 W/m -1,7 C -0,5 C 4,4 km/h (1 Bft) 98,63 %
25.11.2015 18:00 -0,8 C 94 % 1008,5 hPa 0,0 l/m 1,3 km/h (1 Bft) N-NO 0,00 h 0,000 mm 0,0 UV-I 0 W/m -1,6 C -0,8 C 3,2 km/h (1 Bft) 97,32 %
25.11.2015 19:00 -1,2 C 96 % 1008,4 hPa 0,0 l/m 0,9 km/h (0 Bft) N-NO 0,00 h 0,000 mm 0,0 UV-I 0 W/m -1,8 C -1,2 C 3,1 km/h (1 Bft) 98,94 %
25.11.2015 20:00 -1,3 C 96 % 1008,4 hPa 0,0 l/m 0,5 km/h (0 Bft) N 0,00 h 0,000 mm 0,0 UV-I 0 W/m -1,8 C -1,3 C 1,9 km/h (1 Bft) 97,16 %
25.11.2015 21:00 -1,1 C 96 % 1008,4 hPa 0,0 l/m 0,7 km/h (0 Bft) NO 0,00 h 0,000 mm 0,0 UV-I 0 W/m -1,7 C -1,1 C 1,9 km/h (1 Bft) 98,65 %
25.11.2015 22:00 -1,1 C 96 % 1008,3 hPa 0,0 l/m 0,3 km/h (0 Bft) O-SO 0,00 h 0,000 mm 0,0 UV-I 0 W/m -1,7 C -1,1 C 1,6 km/h (1 Bft) 97,22 %
25.11.2015 23:00 -1,1 C 96 % 1008,2 hPa 0,0 l/m 0,4 km/h (0 Bft) O-SO 0,00 h 0,000 mm 0,0 UV-I 0 W/m -1,6 C -1,1 C 1,5 km/h (1 Bft) 98,38 %
26.11.2015 00:00 -0,9 C 97 % 1008,2 hPa 0,0 l/m 0,2 km/h (0 Bft) O-SO 0,00 h 0,000 mm 0,0 UV-I 0 W/m -1,3 C -0,9 C 0,4 km/h (0 Bft) 97,73 %
26.11.2015 01:00 -0,7 C 97 % 1008,1 hPa 0,0 l/m 0,9 km/h (0 Bft) SO 0,00 h 0,000 mm 0,0 UV-I 0 W/m -1,2 C -0,7 C 2,3 km/h (1 Bft) 98,93 %
26.11.2015 02:00 -0,5 C 97 % 1008,1 hPa 0,0 l/m 1,3 km/h (1 Bft) S-SW 0,00 h 0,000 mm 0,0 UV-I 0 W/m -0,9 C -0,5 C 2,9 km/h (1 Bft) 97,64 %
26.11.2015 03:00 -0,3 C 97 % 1008,1 hPa 0,0 l/m 3,4 km/h (1 Bft) W 0,00 h 0,000 mm 0,0 UV-I 0 W/m -0,7 C -0,3 C 5,7 km/h (1 Bft) 99,07 %
26.11.2015 04:00 -0,1 C 97 % 1008,3 hPa 0,0 l/m 3,3 km/h (1 Bft) W-SW 0,00 h 0,000 mm 0,0 UV-I 0 W/m -0,5 C -0,1 C 5,7 km/h (1 Bft) 98,16 %
26.11.2015 05:00 0,3 C 97 % 1008,7 hPa 0,0 l/m 4,7 km/h (1 Bft) W-SW 0,00 h 0,000 mm 0,0 UV-I 0 W/m -0,1 C 0,3 C 7,1 km/h (2 Bft) 99,23 %
26.11.2015 06:00 0,6 C 97 % 1009,4 hPa 0,0 l/m 5,8 km/h (1 Bft) W-SW 0,00 h 0,000 mm 0,0 UV-I 0 W/m 0,2 C 0,3 C 10,1 km/h (2 Bft) 97,21 %
26.11.2015 07:00 0,6 C 97 % 1010,2 hPa 0,0 l/m 6,2 km/h (2 Bft) W-SW 0,00 h 0,000 mm 0,0 UV-I 0 W/m 0,2 C 0,4 C 11,3 km/h (2 Bft) 99,02 %
26.11.2015 08:00 0,6 C 97 % 1011,0 hPa 0,0 l/m 4,1 km/h (1 Bft) SW 0,00 h 0,000 mm 0,0 UV-I 10 W/m 0,2 C 0,6 C 6,9 km/h (2 Bft) 98,15 %
26.11.2015 09:00 1,2 C 96 % 1011,5 hPa 0,0 l/m 6,7 km/h (2 Bft) SW 0,00 h 0,000 mm 0,0 UV-I 41 W/m 0,6 C 0,7 C 11,2 km/h (2 Bft) 98,59 %
26.11.2015 10:00 1,6 C 94 % 1012,2 hPa 0,0 l/m 5,8 km/h (2 Bft) W 0,00 h 0,025 mm 0,0 UV-I 71 W/m 0,7 C 1,5 C 10,3 km/h (2 Bft) 98,01 %
26.11.2015 11:00 2,0 C 94 % 1012,8 hPa 1,2 l/m 4,1 km/h (1 Bft) W 0,00 h 0,026 mm 0,0 UV-I 87 W/m 1,1 C 2,0 C 6,7 km/h (2 Bft) 98,87 %
26.11.2015 12:00 2,4 C 95 % 1013,3 hPa 1,4 l/m 3,5 km/h (1 Bft) W 0,00 h 0,025 mm 0,0 UV-I 73 W/m 1,7 C 2,4 C 7,1 km/h (2 Bft) 98,15 %
26.11.2015 13:00 2,4 C 94 % 1013,9 hPa 0,8 l/m 4,6 km/h (1 Bft) W 0,00 h 0,026 mm 0,0 UV-I 36 W/m 1,5 C 2,4 C 9,8 km/h (2 Bft) 98,56 %
26.11.2015 14:00 2,4 C 94 % 1014,7 hPa 0,8 l/m 4,2 km/h (1 Bft) W 0,00 h 0,025 mm 0,0 UV-I 22 W/m 1,5 C 2,4 C 7,8 km/h (2 Bft) 97,98 %
26.11.2015 15:00 2,2 C 94 % 1015,5 hPa 0,6 l/m 4,8 km/h (1 Bft) W 0,00 h 0,000 mm 0,0 UV-I 9 W/m 1,4 C 2,2 C 9,4 km/h (2 Bft) 98,80 %
26.11.2015 16:00 2,1 C 94 % 1016,4 hPa 0,4 l/m 3,8 km/h (1 Bft) W 0,00 h 0,000 mm 0,0 UV-I 0 W/m 1,3 C 2,1 C 6,3 km/h (2 Bft) 98,52 %
26.11.2015 17:00 1,9 C 95 % 1017,2 hPa 0,4 l/m 3,8 km/h (1 Bft) S-SW 0,00 h 0,000 mm 0,0 UV-I 0 W/m 1,2 C 1,9 C 5,9 km/h (2 Bft) 98,70 %
26.11.2015 18:00 1,7 C 96 % 1017,9 hPa 0,0 l/m 5,5 km/h (1 Bft) S-SW 0,00 h 0,000 mm 0,0 UV-I 0 W/m 1,1 C 1,7 C 8,7 km/h (2 Bft) 98,57 %
26.11.2015 19:00 1,8 C 96 % 1018,5 hPa 0,0 l/m 6,7 km/h (2 Bft) S-SW 0,00 h 0,000 mm 0,0 UV-I 0 W/m 1,2 C 1,3 C 11,0 km/h (2 Bft) 97,86 %
26.11.2015 20:00 1,7 C 96 % 1019,2 hPa 0,0 l/m 5,6 km/h (1 Bft) S-SW 0,00 h 0,000 mm 0,0 UV-I 0 W/m 1,2 C 1,7 C 9,7 km/h (2 Bft) 98,65 %
26.11.2015 21:00 1,7 C 96 % 1019,6 hPa 0,0 l/m 5,7 km/h (1 Bft) S-SW 0,00 h 0,000 mm 0,0 UV-I 0 W/m 1,1 C 1,7 C 8,8 km/h (2 Bft) 97,77 %
26.11.2015 22:00 1,7 C 96 % 1019,8 hPa 0,0 l/m 5,8 km/h (1 Bft) SW 0,00 h 0,000 mm 0,0 UV-I 0 W/m 1,2 C 1,5 C 9,7 km/h (2 Bft) 98,67 %
26.11.2015 23:00 1,8 C 96 % 1020,2 hPa 0,0 l/m 3,7 km/h (1 Bft) S-SW 0,00 h 0,000 mm 0,0 UV-I 0 W/m 1,2 C 1,8 C 6,7 km/h (2 Bft) 97,48 %
27.11.2015 00:00 1,7 C 96 % 1020,4 hPa 0,0 l/m 3,1 km/h (1 Bft) S-SW 0,00 h 0,000 mm 0,0 UV-I 0 W/m 1,1 C 1,7 C 5,3 km/h (1 Bft) 98,75 %
27.11.2015 01:00 1,6 C 97 % 1020,6 hPa 0,0 l/m 3,9 km/h (1 Bft) S-SW 0,00 h 0,000 mm 0,0 UV-I 0 W/m 1,1 C 1,6 C 6,1 km/h (2 Bft) 97,99 %
27.11.2015 02:00 1,7 C 96 % 1020,6 hPa 0,0 l/m 4,1 km/h (1 Bft) S-SW 0,00 h 0,000 mm 0,0 UV-I 0 W/m 1,1 C 1,7 C 6,7 km/h (2 Bft) 98,88 %
27.11.2015 03:00 1,6 C 96 % 1020,3 hPa 0,0 l/m 3,4 km/h (1 Bft) S-SW 0,00 h 0,000 mm 0,0 UV-I 0 W/m 1,1 C 1,6 C 5,9 km/h (2 Bft) 97,70 %
27.11.2015 04:00 1,6 C 96 % 1020,1 hPa 0,0 l/m 3,3 km/h (1 Bft) S-SW 0,00 h 0,000 mm 0,0 UV-I 0 W/m 1,1 C 1,6 C 6,0 km/h (2 Bft) 99,21 %
27.11.2015 05:00 1,3 C 97 % 1020,0 hPa 0,0 l/m 1,3 km/h (1 Bft) S-SW 0,00 h 0,000 mm 0,0 UV-I 0 W/m 0,8 C 1,3 C 2,5 km/h (1 Bft) 97,51 %
27.11.2015 06:00 1,3 C 97 % 1020,1 hPa 0,0 l/m 2,3 km/h (1 Bft) SW 0,00 h 0,000 mm 0,0 UV-I 0 W/m 0,9 C 1,3 C 4,1 km/h (1 Bft) 98,95 %
27.11.2015 07:00 1,2 C 97 % 1020,1 hPa 0,0 l/m 0,9 km/h (0 Bft) S 0,00 h 0,000 mm 0,0 UV-I 5 W/m 0,8 C 1,2 C 2,3 km/h (1 Bft) 97,02 %
27.11.2015 08:00 1,3 C 97 % 1020,1 hPa 0,0 l/m 1,9 km/h (1 Bft) S-SW 0,00 h 0,000 mm 0,0 UV-I 16 W/m 0,9 C 1,3 C 4,0 km/h (1 Bft) 99,50 %
27.11.2015 09:00 1,8 C 97 % 1019,9 hPa 0,0 l/m 1,2 km/h (1 Bft) S-SW 0,00 h 0,000 mm 0,0 UV-I 52 W/m 1,3 C 1,8 C 3,3 km/h (1 Bft) 97,64 %
27.11.2015 10:00 2,3 C 95 % 1019,8 hPa 0,0 l/m 0,3 km/h (0 Bft) N 0,00 h 0,025 mm 0,0 UV-I 82 W/m 1,6 C 2,3 C 2,0 km/h (1 Bft) 99,24 %
27.11.2015 11:00 2,8 C 93 % 1019,3 hPa 0,0 l/m 1,4 km/h (1 Bft) O-NO 0,00 h 0,026 mm 0,0 UV-I 100 W/m 1,8 C 2,8 C 3,9 km/h (1 Bft) 97,44 %
27.11.2015 12:00 3,1 C 91 % 1018,7 hPa 0,0 l/m 3,6 km/h (1 Bft) O-NO 0,00 h 0,025 mm 0,0 UV-I 123 W/m 1,8 C 3,1 C 6,9 km/h (2 Bft) 99,08 %
27.11.2015 13:00 3,3 C 84 % 1017,9 hPa 0,0 l/m 4,2 km/h (1 Bft) O 0,00 h 0,051 mm 0,0 UV-I 96 W/m 0,9 C 3,3 C 8,0 km/h (2 Bft) 97,98 %
27.11.2015 14:00 3,4 C 82 % 1017,3 hPa 0,0 l/m 4,7 km/h (1 Bft) O-NO 0,00 h 0,051 mm 0,0 UV-I 74 W/m 0,7 C 3,4 C 8,4 km/h (2 Bft) 98,80 %
27.11.2015 15:00 3,0 C 84 % 1017,0 hPa 0,0 l/m 5,4 km/h (1 Bft) O-NO 0,00 h 0,025 mm 0,0 UV-I 17 W/m 0,6 C 2,7 C 9,5 km/h (2 Bft) 97,79 %
27.11.2015 16:00 2,3 C 89 % 1016,7 hPa 0,0 l/m 2,7 km/h (1 Bft) O-NO 0,00 h 0,026 mm 0,0 UV-I 0 W/m 0,6 C 2,3 C 4,7 km/h (1 Bft) 99,29 %
27.11.2015 17:00 1,9 C 93 % 1016,4 hPa 0,0 l/m 1,6 km/h (1 Bft) O 0,00 h 0,000 mm 0,0 UV-I 0 W/m 0,9 C 1,9 C 3,5 km/h (1 Bft) 97,99 %
27.11.2015 18:00 1,8 C 93 % 1016,1 hPa 0,0 l/m 2,8 km/h (1 Bft) O-SO 0,00 h 0,000 mm 0,0 UV-I 0 W/m 0,9 C 1,8 C 4,8 km/h (1 Bft) 98,23 %
27.11.2015 19:00 1,8 C 93 % 1015,8 hPa 0,0 l/m 1,9 km/h (1 Bft) O-SO 0,00 h 0,000 mm 0,0 UV-I 0 W/m 0,7 C 1,8 C 3,6 km/h (1 Bft) 98,37 %
27.11.2015 20:00 1,6 C 95 % 1015,3 hPa 0,0 l/m 0,2 km/h (0 Bft) O-SO 0,00 h 0,000 mm 0,0 UV-I 0 W/m 0,8 C 1,6 C 0,7 km/h (0 Bft) 98,44 %
27.11.2015 21:00 1,7 C 94 % 1014,9 hPa 0,0 l/m 1,5 km/h (1 Bft) O 0,00 h 0,000 mm 0,0 UV-I 0 W/m 0,9 C 1,7 C 3,2 km/h (1 Bft) 98,19 %
27.11.2015 22:00 1,5 C 95 % 1014,2 hPa 0,0 l/m 1,0 km/h (0 Bft) O-NO 0,00 h 0,000 mm 0,0 UV-I 0 W/m 0,8 C 1,5 C 2,4 km/h (1 Bft) 98,27 %
27.11.2015 23:00 1,3 C 95 % 1014,0 hPa 0,0 l/m 1,5 km/h (1 Bft) O-NO 0,00 h 0,000 mm 0,0 UV-I 0 W/m 0,6 C 1,3 C 2,9 km/h (1 Bft) 98,45 %
28.11.2015 00:00 1,2 C 96 % 1013,8 hPa 0,0 l/m 0,4 km/h (0 Bft) O-SO 0,00 h 0,000 mm 0,0 UV-I 0 W/m 0,6 C 1,2 C 1,5 km/h (1 Bft) 98,13 %
28.11.2015 01:00 1,1 C 96 % 1013,4 hPa 0,0 l/m 0,4 km/h (0 Bft) O-SO 0,00 h 0,000 mm 0,0 UV-I 0 W/m 0,5 C 1,1 C 1,2 km/h (1 Bft) 98,29 %
28.11.2015 02:00 1,1 C 96 % 1013,0 hPa 0,0 l/m 1,2 km/h (1 Bft) O-SO 0,00 h 0,000 mm 0,0 UV-I 0 W/m 0,6 C 1,1 C 2,9 km/h (1 Bft) 98,47 %
28.11.2015 03:00 1,2 C 96 % 1012,5 hPa 0,0 l/m 2,3 km/h (1 Bft) W 0,00 h 0,000 mm 0,0 UV-I 0 W/m 0,6 C 1,2 C 4,9 km/h (1 Bft) 98,99 %
28.11.2015 04:00 1,2 C 96 % 1012,5 hPa 0,0 l/m 3,3 km/h (1 Bft) S-SW 0,00 h 0,000 mm 0,0 UV-I 0 W/m 0,6 C 1,2 C 5,3 km/h (1 Bft) 98,42 %
28.11.2015 05:00 1,1 C 96 % 1012,7 hPa 0,0 l/m 5,5 km/h (1 Bft) W-SW 0,00 h 0,000 mm 0,0 UV-I 0 W/m 0,5 C 0,5 C 9,6 km/h (2 Bft) 98,87 %
28.11.2015 06:00 1,1 C 94 % 1012,9 hPa 0,0 l/m 8,1 km/h (2 Bft) W 0,00 h 0,000 mm 0,0 UV-I 0 W/m 0,3 C -0,6 C 14,9 km/h (3 Bft) 98,07 %
28.11.2015 07:00 0,9 C 94 % 1013,1 hPa 0,0 l/m 7,0 km/h (2 Bft) W 0,00 h 0,000 mm 0,0 UV-I 9 W/m 0,0 C 0,1 C 13,0 km/h (3 Bft) 98,84 %
28.11.2015 08:00 1,1 C 92 % 1013,4 hPa 0,0 l/m 6,2 km/h (2 Bft) W-SW 0,00 h 0,000 mm 0,0 UV-I 19 W/m 0,0 C 0,8 C 12,2 km/h (2 Bft) 98,06 %
28.11.2015 09:00 1,8 C 85 % 1013,5 hPa 0,0 l/m 10,9 km/h (2 Bft) W 0,00 h 0,000 mm 0,0 UV-I 67 W/m -0,6 C -2,1 C 20,4 km/h (4 Bft) 98,80 %
28.11.2015 10:00 2,1 C 80 % 1013,5 hPa 0,0 l/m 10,5 km/h (2 Bft) W-SW 0,00 h 0,051 mm 0,5 UV-I 133 W/m -0,9 C -1,4 C 19,3 km/h (3 Bft) 97,24 %
28.11.2015 11:00 3,1 C 76 % 1013,4 hPa 0,0 l/m 9,4 km/h (2 Bft) W 1,00 h 0,076 mm 0,8 UV-I 321 W/m -0,7 C 0,6 C 18,2 km/h (3 Bft) 98,66 %
28.11.2015 12:00 4,2 C 70 % 1013,4 hPa 0,0 l/m 14,6 km/h (3 Bft) W 0,67 h 0,127 mm 0,7 UV-I 228 W/m -0,9 C -1,5 C 25,6 km/h (4 Bft) 87,14 %
28.11.2015 13:00 3,4 C 78 % 1013,8 hPa 0,2 l/m 17,5 km/h (3 Bft) W 0,00 h 0,127 mm 0,0 UV-I 39 W/m -0,0 C -4,0 C 29,6 km/h (5 Bft) 97,71 %
28.11.2015 14:00 2,3 C 91 % 1014,5 hPa 0,0 l/m 18,5 km/h (3 Bft) W-SW 0,00 h 0,051 mm 0,0 UV-I 35 W/m 0,9 C -6,0 C 31,1 km/h (5 Bft) 99,06 %
28.11.2015 15:00 2,2 C 93 % 1015,3 hPa 0,2 l/m 20,4 km/h (4 Bft) SW 0,00 h 0,025 mm 0,0 UV-I 18 W/m 1,2 C -7,0 C 32,1 km/h (5 Bft) 97,44 %
28.11.2015 16:00 2,3 C 93 % 1016,4 hPa 0,4 l/m 18,6 km/h (3 Bft) SW 0,00 h 0,026 mm 0,0 UV-I 0 W/m 1,3 C -6,0 C 29,3 km/h (5 Bft) 98,87 %
28.11.2015 17:00 2,2 C 94 % 1017,7 hPa 0,4 l/m 15,7 km/h (3 Bft) SW 0,00 h 0,000 mm 0,0 UV-I 0 W/m 1,4 C -4,6 C 25,5 km/h (4 Bft) 97,49 %
28.11.2015 18:00 2,4 C 94 % 1018,7 hPa 0,0 l/m 17,2 km/h (3 Bft) SW 0,00 h 0,000 mm 0,0 UV-I 0 W/m 1,6 C -5,1 C 28,2 km/h (4 Bft) 98,65 %
28.11.2015 19:00 2,6 C 94 % 1019,5 hPa 0,2 l/m 11,8 km/h (2 Bft) W-SW 0,00 h 0,000 mm 0,0 UV-I 0 W/m 1,7 C -1,9 C 20,6 km/h (4 Bft) 98,02 %
28.11.2015 20:00 2,7 C 94 % 1020,0 hPa 0,0 l/m 9,6 km/h (2 Bft) W-SW 0,00 h 0,000 mm 0,0 UV-I 0 W/m 1,8 C -0,1 C 17,3 km/h (3 Bft) 98,55 %
28.11.2015 21:00 3,1 C 92 % 1020,5 hPa 0,2 l/m 13,6 km/h (3 Bft) W-SW 0,00 h 0,000 mm 0,0 UV-I 0 W/m 1,9 C -2,3 C 22,8 km/h (4 Bft) 98,35 %
28.11.2015 22:00 3,2 C 90 % 1021,0 hPa 0,0 l/m 17,8 km/h (3 Bft) W-SW 0,00 h 0,000 mm 0,0 UV-I 0 W/m 1,8 C -4,4 C 29,5 km/h (5 Bft) 98,87 %
28.11.2015 23:00 3,3 C 87 % 1021,4 hPa 0,0 l/m 17,2 km/h (3 Bft) W-SW 0,00 h 0,025 mm 0,0 UV-I 0 W/m 1,3 C -4,1 C 29,4 km/h (5 Bft) 98,73 %
29.11.2015 00:00 2,7 C 87 % 1021,4 hPa 0,0 l/m 13,3 km/h (3 Bft) SW 0,00 h 0,000 mm 0,0 UV-I 0 W/m 0,8 C -2,6 C 23,3 km/h (4 Bft) 98,28 %
29.11.2015 01:00 2,2 C 89 % 1021,5 hPa 0,0 l/m 11,3 km/h (2 Bft) SW 0,00 h 0,025 mm 0,0 UV-I 0 W/m 0,6 C -1,9 C 18,1 km/h (3 Bft) 99,16 %
29.11.2015 02:00 1,8 C 88 % 1021,6 hPa 0,0 l/m 12,5 km/h (3 Bft) SW 0,00 h 0,000 mm 0,0 UV-I 0 W/m 0,1 C -3,2 C 20,6 km/h (4 Bft) 97,77 %
29.11.2015 03:00 1,7 C 85 % 1021,4 hPa 0,0 l/m 14,6 km/h (3 Bft) SW 0,00 h 0,000 mm 0,0 UV-I 0 W/m -0,5 C -4,6 C 24,8 km/h (4 Bft) 99,14 %
29.11.2015 04:00 1,4 C 85 % 1021,0 hPa 0,0 l/m 9,0 km/h (2 Bft) SW 0,00 h 0,026 mm 0,0 UV-I 0 W/m -0,8 C -1,0 C 15,6 km/h (3 Bft) 97,71 %
29.11.2015 05:00 1,7 C 83 % 1020,8 hPa 0,0 l/m 13,0 km/h (3 Bft) W-SW 0,00 h 0,000 mm 0,0 UV-I 0 W/m -0,8 C -3,6 C 21,6 km/h (4 Bft) 99,07 %
29.11.2015 06:00 1,6 C 83 % 1020,7 hPa 0,0 l/m 7,7 km/h (2 Bft) SW 0,00 h 0,025 mm 0,0 UV-I 0 W/m -1,0 C 0,1 C 13,7 km/h (3 Bft) 97,35 %
29.11.2015 07:00 1,0 C 87 % 1020,7 hPa 0,0 l/m 4,6 km/h (1 Bft) S-SW 0,00 h 0,000 mm 0,0 UV-I 8 W/m -0,8 C 1,0 C 7,8 km/h (2 Bft) 98,57 %
29.11.2015 08:00 1,8 C 86 % 1020,4 hPa 0,0 l/m 4,1 km/h (1 Bft) W 0,00 h 0,000 mm 0,0 UV-I 26 W/m -0,3 C 1,8 C 8,6 km/h (2 Bft) 97,50 %
29.11.2015 09:00 2,7 C 81 % 1020,0 hPa 0,0 l/m 7,6 km/h (2 Bft) SW 0,00 h 0,026 mm 0,0 UV-I 86 W/m -0,2 C 1,5 C 13,6 km/h (3 Bft) 98,80 %
29.11.2015 10:00 4,3 C 76 % 1020,0 hPa 0,0 l/m 5,6 km/h (1 Bft) S-SW 0,08 h 0,050 mm 0,4 UV-I 142 W/m 0,4 C 4,2 C 10,8 km/h (2 Bft) 97,95 %
29.11.2015 11:00 6,8 C 65 % 1019,3 hPa 0,0 l/m 16,5 km/h (3 Bft) W-SW 0,00 h 0,077 mm 0,0 UV-I 91 W/m 0,7 C 0,8 C 27,8 km/h (4 Bft) 98,62 %
29.11.2015 12:00 6,9 C 72 % 1018,9 hPa 0,0 l/m 21,5 km/h (4 Bft) W 0,00 h 0,101 mm 0,0 UV-I 95 W/m 2,2 C -1,2 C 37,8 km/h (5 Bft) 98,01 %
29.11.2015 13:00 5,9 C 84 % 1018,8 hPa 0,4 l/m 19,7 km/h (3 Bft) W-SW 0,00 h 0,102 mm 0,0 UV-I 68 W/m 3,3 C -1,9 C 30,9 km/h (5 Bft) 99,22 %
29.11.2015 14:00 5,4 C 89 % 1018,9 hPa 0,8 l/m 15,7 km/h (3 Bft) SW 0,00 h 0,051 mm 0,0 UV-I 30 W/m 3,7 C -0,8 C 26,3 km/h (4 Bft) 97,84 %
29.11.2015 15:00 5,6 C 89 % 1018,8 hPa 0,6 l/m 18,1 km/h (3 Bft) W-SW 0,00 h 0,025 mm 0,0 UV-I 10 W/m 3,9 C -1,6 C 30,5 km/h (5 Bft) 99,03 %
29.11.2015 16:00 5,7 C 90 % 1018,7 hPa 1,6 l/m 21,5 km/h (4 Bft) SW 0,00 h 0,025 mm 0,0 UV-I 0 W/m 4,1 C -2,8 C 35,9 km/h (5 Bft) 97,93 %
29.11.2015 17:00 6,0 C 90 % 1019,1 hPa 1,0 l/m 24,1 km/h (4 Bft) W-SW 0,00 h 0,026 mm 0,0 UV-I 0 W/m 4,6 C -3,2 C 41,0 km/h (6 Bft) 98,03 %
29.11.2015 18:00 6,6 C 89 % 1019,1 hPa 0,2 l/m 24,3 km/h (4 Bft) SW 0,00 h 0,025 mm 0,0 UV-I 0 W/m 4,9 C -2,5 C 40,2 km/h (6 Bft) 98,35 %
29.11.2015 19:00 6,9 C 88 % 1019,1 hPa 0,4 l/m 20,8 km/h (4 Bft) W-SW 0,00 h 0,026 mm 0,0 UV-I 0 W/m 5,1 C -0,9 C 33,5 km/h (5 Bft) 97,67 %
29.11.2015 20:00 7,6 C 85 % 1019,1 hPa 0,0 l/m 18,9 km/h (3 Bft) SW 0,00 h 0,025 mm 0,0 UV-I 0 W/m 5,2 C 0,6 C 31,1 km/h (5 Bft) 98,73 %
29.11.2015 21:00 8,3 C 80 % 1018,8 hPa 0,0 l/m 22,2 km/h (4 Bft) SW 0,00 h 0,025 mm 0,0 UV-I 0 W/m 5,0 C 0,4 C 38,5 km/h (5 Bft) 96,98 %
29.11.2015 22:00 8,8 C 77 % 1018,5 hPa 0,0 l/m 24,1 km/h (4 Bft) SW 0,00 h 0,051 mm 0,0 UV-I 0 W/m 5,0 C 0,4 C 39,6 km/h (6 Bft) 98,45 %
29.11.2015 23:00 8,6 C 80 % 1018,5 hPa 0,0 l/m 22,2 km/h (4 Bft) W-SW 0,00 h 0,051 mm 0,0 UV-I 0 W/m 5,3 C 0,7 C 38,4 km/h (5 Bft) 97,12 %
Min-Datum _ 25.11.15 29.11.15 26.11.15 - 23.11.15 - - - - - 25.11.15 28.11.15 23.11.15 28.11.15
_ Min-Zeit 04:15 11:15 01:00 - 21:15 - - - - - 05:15 15:25 21:20 12:40
Minimum _ -5,3 C 63 % 1008,0 hPa - 0,0 km/h (0 Bft) - - - - - -6,1 C -8,0 C 0,0 km/h (0 Bft) 11,67 %
Max-Datum _ 29.11.15 26.11.15 24.11.15 29.11.15 29.11.15 - 23.11.15 23.11.15 24.11.15 23.11.15 29.11.15 29.11.15 29.11.15 23.11.15
_ Max-Zeit 22:40 05:25 00:15 16:05 22:25 - 10:40 14:00 11:15 13:40 23:55 10:55 12:15 00:15
Maximum _ 8,9 C 98 % 1026,6 hPa 1,6 l/m 27,1 km/h
SW (4 Bft)
- 0,08 h 0,152 mm 0,9 UV-I 428 W/m 5,4 C 5,5 C 49,9 km/h
W-SW (6 Bft)
100,00 %
Durchschnitt _ 1,1 C 89 % 1017,5 hPa #12,2 l/m 6,4 km/h (2 Bft) SW #10:30 h #3,125 mm 0,5 UV-I 91 W/m -0,5 C -0,6 C 11,2 km/h (2 Bft) 98,27 %